sensor_id;sensor_type;location;lat;lon;timestamp;pressure;altitude;pressure_sealevel;temperature;humidity
77778;BME280;66966;-34.746;138.604;2023-05-10T00:01:57;103179.38;;;15.27;41.59
77778;BME280;66966;-34.746;138.604;2023-05-10T00:04:23;103174.78;;;15.19;41.26
77778;BME280;66966;-34.746;138.604;2023-05-10T00:06:48;103168.21;;;15.31;41.02
77778;BME280;66966;-34.746;138.604;2023-05-10T00:09:14;103167.76;;;15.50;40.96
77778;BME280;66966;-34.746;138.604;2023-05-10T00:11:39;103162.27;;;15.73;41.02
77778;BME280;66966;-34.746;138.604;2023-05-10T00:14:05;103159.47;;;15.88;40.49
77778;BME280;66966;-34.746;138.604;2023-05-10T00:16:31;103156.39;;;16.05;40.45
77778;BME280;66966;-34.746;138.604;2023-05-10T00:18:56;103153.45;;;16.23;40.22
77778;BME280;66966;-34.746;138.604;2023-05-10T00:21:22;103153.48;;;16.12;39.94
77778;BME280;66966;-34.746;138.604;2023-05-10T00:23:47;103152.31;;;15.97;39.56
77778;BME280;66966;-34.746;138.604;2023-05-10T00:26:13;103145.59;;;16.25;39.30
77778;BME280;66966;-34.746;138.604;2023-05-10T00:28:39;103146.49;;;16.27;39.41
77778;BME280;66966;-34.746;138.604;2023-05-10T00:31:04;103146.22;;;16.62;39.45
77778;BME280;66966;-34.746;138.604;2023-05-10T00:33:29;103145.96;;;16.20;39.39
77778;BME280;66966;-34.746;138.604;2023-05-10T00:35:55;103141.02;;;16.19;38.88
77778;BME280;66966;-34.746;138.604;2023-05-10T00:38:20;103140.75;;;16.16;39.33
77778;BME280;66966;-34.746;138.604;2023-05-10T00:40:46;103138.06;;;16.17;39.35
77778;BME280;66966;-34.746;138.604;2023-05-10T00:43:11;103132.48;;;16.47;39.16
77778;BME280;66966;-34.746;138.604;2023-05-10T00:45:38;103125.03;;;16.31;39.40
77778;BME280;66966;-34.746;138.604;2023-05-10T00:48:03;103119.09;;;16.71;38.91
77778;BME280;66966;-34.746;138.604;2023-05-10T00:50:29;103115.12;;;16.49;38.79
77778;BME280;66966;-34.746;138.604;2023-05-10T00:52:54;103117.16;;;16.49;38.96
77778;BME280;66966;-34.746;138.604;2023-05-10T00:55:19;103122.69;;;16.29;38.78
77778;BME280;66966;-34.746;138.604;2023-05-10T00:57:46;103126.70;;;16.58;39.05
77778;BME280;66966;-34.746;138.604;2023-05-10T01:00:11;103126.27;;;16.95;39.03
77778;BME280;66966;-34.746;138.604;2023-05-10T01:02:36;103129.04;;;16.83;38.77
77778;BME280;66966;-34.746;138.604;2023-05-10T01:05:02;103126.65;;;16.87;38.47
77778;BME280;66966;-34.746;138.604;2023-05-10T01:07:27;103129.10;;;17.02;38.59
77778;BME280;66966;-34.746;138.604;2023-05-10T01:09:52;103126.26;;;17.09;38.32
77778;BME280;66966;-34.746;138.604;2023-05-10T01:12:18;103126.43;;;17.33;38.42
77778;BME280;66966;-34.746;138.604;2023-05-10T01:14:44;103118.65;;;16.98;37.58
77778;BME280;66966;-34.746;138.604;2023-05-10T01:17:10;103115.28;;;16.92;38.31
77778;BME280;66966;-34.746;138.604;2023-05-10T01:19:35;103107.74;;;17.06;37.92
77778;BME280;66966;-34.746;138.604;2023-05-10T01:22:05;103100.23;;;17.40;38.14
77778;BME280;66966;-34.746;138.604;2023-05-10T01:29:27;103090.30;;;17.58;37.46
77778;BME280;66966;-34.746;138.604;2023-05-10T01:34:11;103085.26;;;17.60;37.04
77778;BME280;66966;-34.746;138.604;2023-05-10T01:36:37;103083.61;;;17.70;37.08
77778;BME280;66966;-34.746;138.604;2023-05-10T01:39:05;103078.73;;;17.83;37.32
77778;BME280;66966;-34.746;138.604;2023-05-10T01:41:32;103083.10;;;18.01;37.14
77778;BME280;66966;-34.746;138.604;2023-05-10T01:43:55;103078.10;;;18.04;36.81
77778;BME280;66966;-34.746;138.604;2023-05-10T01:46:20;103072.15;;;17.98;36.82
77778;BME280;66966;-34.746;138.604;2023-05-10T01:48:47;103069.66;;;18.34;36.66
77778;BME280;66966;-34.746;138.604;2023-05-10T01:51:06;103061.15;;;18.44;36.30
77778;BME280;66966;-34.746;138.604;2023-05-10T01:53:33;103060.40;;;18.22;36.19
77778;BME280;66966;-34.746;138.604;2023-05-10T01:55:57;103057.65;;;18.34;36.24
77778;BME280;66966;-34.746;138.604;2023-05-10T01:58:26;103052.15;;;18.64;36.35
77778;BME280;66966;-34.746;138.604;2023-05-10T02:00:50;103045.38;;;18.46;36.09
77778;BME280;66966;-34.746;138.604;2023-05-10T02:03:14;103039.56;;;18.35;35.79
77778;BME280;66966;-34.746;138.604;2023-05-10T02:05:40;103031.55;;;18.75;36.17
77778;BME280;66966;-34.746;138.604;2023-05-10T02:08:06;103027.58;;;18.59;35.63
77778;BME280;66966;-34.746;138.604;2023-05-10T02:10:30;103027.51;;;18.93;35.32
77778;BME280;66966;-34.746;138.604;2023-05-10T02:12:58;103021.76;;;18.72;35.14
77778;BME280;66966;-34.746;138.604;2023-05-10T02:15:22;103017.43;;;18.73;34.49
77778;BME280;66966;-34.746;138.604;2023-05-10T02:17:47;103016.04;;;18.76;35.28
77778;BME280;66966;-34.746;138.604;2023-05-10T02:20:12;103013.32;;;18.87;34.85
77778;BME280;66966;-34.746;138.604;2023-05-10T02:22:37;103010.22;;;18.88;34.10
77778;BME280;66966;-34.746;138.604;2023-05-10T02:25:03;103004.93;;;18.97;34.02
77778;BME280;66966;-34.746;138.604;2023-05-10T02:27:28;103004.48;;;19.07;34.06
77778;BME280;66966;-34.746;138.604;2023-05-10T02:29:54;102999.71;;;19.00;33.35
77778;BME280;66966;-34.746;138.604;2023-05-10T02:32:19;102998.17;;;18.97;33.51
77778;BME280;66966;-34.746;138.604;2023-05-10T02:34:45;102991.27;;;18.98;34.21
77778;BME280;66966;-34.746;138.604;2023-05-10T02:37:10;102984.56;;;19.05;34.28
77778;BME280;66966;-34.746;138.604;2023-05-10T02:39:35;102986.75;;;19.15;34.80
77778;BME280;66966;-34.746;138.604;2023-05-10T02:42:01;102980.42;;;19.44;34.74
77778;BME280;66966;-34.746;138.604;2023-05-10T02:44:27;102973.54;;;19.37;34.23
77778;BME280;66966;-34.746;138.604;2023-05-10T02:46:51;102968.98;;;19.25;34.17
77778;BME280;66966;-34.746;138.604;2023-05-10T02:49:17;102963.20;;;19.47;33.93
77778;BME280;66966;-34.746;138.604;2023-05-10T02:51:47;102959.72;;;19.56;34.22
77778;BME280;66966;-34.746;138.604;2023-05-10T02:54:12;102955.32;;;19.68;34.26
77778;BME280;66966;-34.746;138.604;2023-05-10T02:56:35;102948.67;;;19.71;33.91
77778;BME280;66966;-34.746;138.604;2023-05-10T02:58:59;102944.12;;;19.90;34.17
77778;BME280;66966;-34.746;138.604;2023-05-10T03:01:24;102941.00;;;19.79;33.81
77778;BME280;66966;-34.746;138.604;2023-05-10T03:03:49;102936.01;;;20.14;33.39
77778;BME280;66966;-34.746;138.604;2023-05-10T03:06:15;102931.94;;;20.02;32.39
77778;BME280;66966;-34.746;138.604;2023-05-10T03:08:40;102923.76;;;19.89;31.87
77778;BME280;66966;-34.746;138.604;2023-05-10T03:11:21;102918.05;;;20.00;32.08
77778;BME280;66966;-34.746;138.604;2023-05-10T03:13:35;102907.09;;;19.83;32.98
77778;BME280;66966;-34.746;138.604;2023-05-10T03:15:59;102898.37;;;19.99;31.87
77778;BME280;66966;-34.746;138.604;2023-05-10T03:18:27;102890.75;;;20.12;33.04
77778;BME280;66966;-34.746;138.604;2023-05-10T03:20:49;102881.23;;;20.33;31.83
77778;BME280;66966;-34.746;138.604;2023-05-10T03:23:21;102878.79;;;20.19;32.45
77778;BME280;66966;-34.746;138.604;2023-05-10T03:25:38;102875.43;;;20.21;32.45
77778;BME280;66966;-34.746;138.604;2023-05-10T03:28:05;102871.81;;;20.69;31.67
77778;BME280;66966;-34.746;138.604;2023-05-10T03:30:29;102871.20;;;20.54;32.39
77778;BME280;66966;-34.746;138.604;2023-05-10T03:32:54;102860.97;;;20.76;31.18
77778;BME280;66966;-34.746;138.604;2023-05-10T03:35:19;102857.66;;;20.49;31.13
77778;BME280;66966;-34.746;138.604;2023-05-10T03:37:45;102852.28;;;20.79;32.10
77778;BME280;66966;-34.746;138.604;2023-05-10T03:40:10;102848.18;;;20.68;32.22
77778;BME280;66966;-34.746;138.604;2023-05-10T03:42:36;102846.16;;;20.92;31.61
77778;BME280;66966;-34.746;138.604;2023-05-10T03:45:01;102840.92;;;20.76;31.25
77778;BME280;66966;-34.746;138.604;2023-05-10T03:47:26;102836.25;;;20.82;31.30
77778;BME280;66966;-34.746;138.604;2023-05-10T03:49:52;102828.51;;;21.15;30.55
77778;BME280;66966;-34.746;138.604;2023-05-10T03:52:17;102827.69;;;21.09;30.30
77778;BME280;66966;-34.746;138.604;2023-05-10T03:54:43;102827.57;;;20.88;30.04
77778;BME280;66966;-34.746;138.604;2023-05-10T03:57:08;102830.07;;;21.04;30.80
77778;BME280;66966;-34.746;138.604;2023-05-10T03:59:33;102825.25;;;21.17;30.33
77778;BME280;66966;-34.746;138.604;2023-05-10T04:01:58;102822.32;;;21.08;30.28
77778;BME280;66966;-34.746;138.604;2023-05-10T04:04:24;102822.28;;;21.40;29.01
77778;BME280;66966;-34.746;138.604;2023-05-10T04:06:50;102822.60;;;21.47;29.89
77778;BME280;66966;-34.746;138.604;2023-05-10T04:09:14;102824.21;;;21.52;28.46
77778;BME280;66966;-34.746;138.604;2023-05-10T04:11:40;102825.00;;;21.51;28.39
77778;BME280;66966;-34.746;138.604;2023-05-10T04:14:05;102820.72;;;21.36;28.42
77778;BME280;66966;-34.746;138.604;2023-05-10T04:16:31;102820.86;;;21.21;29.02
77778;BME280;66966;-34.746;138.604;2023-05-10T04:18:56;102815.12;;;21.31;27.90
77778;BME280;66966;-34.746;138.604;2023-05-10T04:21:21;102812.43;;;21.24;28.70
77778;BME280;66966;-34.746;138.604;2023-05-10T04:23:47;102806.15;;;21.23;28.95
77778;BME280;66966;-34.746;138.604;2023-05-10T04:26:12;102803.44;;;21.40;29.28
77778;BME280;66966;-34.746;138.604;2023-05-10T04:28:37;102796.72;;;21.24;28.86
77778;BME280;66966;-34.746;138.604;2023-05-10T04:31:04;102793.19;;;21.38;29.22
77778;BME280;66966;-34.746;138.604;2023-05-10T04:33:28;102790.48;;;21.45;29.93
77778;BME280;66966;-34.746;138.604;2023-05-10T04:35:53;102787.08;;;21.42;29.62
77778;BME280;66966;-34.746;138.604;2023-05-10T04:38:19;102784.69;;;21.35;29.35
77778;BME280;66966;-34.746;138.604;2023-05-10T04:40:44;102783.92;;;21.92;28.07
77778;BME280;66966;-34.746;138.604;2023-05-10T04:43:10;102784.52;;;21.80;27.61
77778;BME280;66966;-34.746;138.604;2023-05-10T04:45:35;102780.84;;;21.58;29.12
77778;BME280;66966;-34.746;138.604;2023-05-10T04:48:00;102775.01;;;21.70;29.15
77778;BME280;66966;-34.746;138.604;2023-05-10T04:50:26;102776.55;;;21.63;28.69
77778;BME280;66966;-34.746;138.604;2023-05-10T04:52:51;102780.21;;;22.01;29.17
77778;BME280;66966;-34.746;138.604;2023-05-10T04:55:17;102777.65;;;21.80;28.91
77778;BME280;66966;-34.746;138.604;2023-05-10T04:57:42;102774.13;;;21.88;27.30
77778;BME280;66966;-34.746;138.604;2023-05-10T05:00:08;102774.18;;;22.35;28.16
77778;BME280;66966;-34.746;138.604;2023-05-10T05:02:32;102772.50;;;22.36;28.89
77778;BME280;66966;-34.746;138.604;2023-05-10T05:04:58;102770.91;;;22.12;27.19
77778;BME280;66966;-34.746;138.604;2023-05-10T05:07:24;102771.34;;;21.99;27.37
77778;BME280;66966;-34.746;138.604;2023-05-10T05:09:48;102763.28;;;22.08;27.15
77778;BME280;66966;-34.746;138.604;2023-05-10T05:12:14;102763.56;;;22.11;28.61
77778;BME280;66966;-34.746;138.604;2023-05-10T05:14:39;102759.71;;;21.95;28.09
77778;BME280;66966;-34.746;138.604;2023-05-10T05:17:04;102756.52;;;22.01;27.80
77778;BME280;66966;-34.746;138.604;2023-05-10T05:19:32;102757.91;;;22.01;27.47
77778;BME280;66966;-34.746;138.604;2023-05-10T05:21:55;102755.86;;;21.83;27.85
77778;BME280;66966;-34.746;138.604;2023-05-10T05:24:20;102752.07;;;22.21;27.46
77778;BME280;66966;-34.746;138.604;2023-05-10T05:26:46;102749.28;;;22.11;27.86
77778;BME280;66966;-34.746;138.604;2023-05-10T05:29:11;102745.72;;;22.44;27.69
77778;BME280;66966;-34.746;138.604;2023-05-10T05:31:37;102743.87;;;22.31;27.90
77778;BME280;66966;-34.746;138.604;2023-05-10T05:34:02;102746.43;;;22.44;27.07
77778;BME280;66966;-34.746;138.604;2023-05-10T05:36:27;102745.20;;;22.47;27.53
77778;BME280;66966;-34.746;138.604;2023-05-10T05:38:52;102742.60;;;22.28;27.38
77778;BME280;66966;-34.746;138.604;2023-05-10T05:41:18;102736.77;;;22.56;27.03
77778;BME280;66966;-34.746;138.604;2023-05-10T05:43:43;102737.93;;;22.59;27.34
77778;BME280;66966;-34.746;138.604;2023-05-10T05:46:08;102736.16;;;22.39;27.02
77778;BME280;66966;-34.746;138.604;2023-05-10T05:48:34;102735.90;;;22.67;27.11
77778;BME280;66966;-34.746;138.604;2023-05-10T05:50:59;102734.73;;;22.73;26.65
77778;BME280;66966;-34.746;138.604;2023-05-10T05:53:25;102734.16;;;22.50;26.51
77778;BME280;66966;-34.746;138.604;2023-05-10T05:55:54;102729.91;;;22.56;27.62
77778;BME280;66966;-34.746;138.604;2023-05-10T05:58:15;102727.51;;;22.62;28.54
77778;BME280;66966;-34.746;138.604;2023-05-10T06:00:40;102730.77;;;22.65;28.30
77778;BME280;66966;-34.746;138.604;2023-05-10T06:03:06;102731.31;;;22.68;28.70
77778;BME280;66966;-34.746;138.604;2023-05-10T06:05:31;102730.93;;;22.70;28.92
77778;BME280;66966;-34.746;138.604;2023-05-10T06:07:58;102726.44;;;22.91;27.98
77778;BME280;66966;-34.746;138.604;2023-05-10T06:10:23;102724.19;;;22.84;27.78
77778;BME280;66966;-34.746;138.604;2023-05-10T06:12:47;102723.35;;;22.40;28.08
77778;BME280;66966;-34.746;138.604;2023-05-10T06:15:13;102722.82;;;22.49;27.95
77778;BME280;66966;-34.746;138.604;2023-05-10T06:17:38;102721.03;;;22.41;27.85
77778;BME280;66966;-34.746;138.604;2023-05-10T06:20:05;102715.05;;;22.26;28.62
77778;BME280;66966;-34.746;138.604;2023-05-10T06:22:28;102713.85;;;22.24;28.95
77778;BME280;66966;-34.746;138.604;2023-05-10T06:24:54;102710.23;;;22.17;29.03
77778;BME280;66966;-34.746;138.604;2023-05-10T06:27:19;102707.87;;;22.14;29.32
77778;BME280;66966;-34.746;138.604;2023-05-10T06:29:44;102709.11;;;22.15;29.47
77778;BME280;66966;-34.746;138.604;2023-05-10T06:32:10;102708.64;;;22.21;29.77
77778;BME280;66966;-34.746;138.604;2023-05-10T06:34:35;102704.27;;;22.07;29.55
77778;BME280;66966;-34.746;138.604;2023-05-10T06:37:00;102702.43;;;22.35;29.42
77778;BME280;66966;-34.746;138.604;2023-05-10T06:39:26;102702.24;;;22.04;29.19
77778;BME280;66966;-34.746;138.604;2023-05-10T06:41:51;102702.82;;;22.23;29.12
77778;BME280;66966;-34.746;138.604;2023-05-10T06:44:17;102702.89;;;22.53;29.36
77778;BME280;66966;-34.746;138.604;2023-05-10T06:46:42;102704.76;;;22.10;29.51
77778;BME280;66966;-34.746;138.604;2023-05-10T06:49:07;102705.59;;;21.80;29.63
77778;BME280;66966;-34.746;138.604;2023-05-10T06:51:32;102705.89;;;21.98;29.84
77778;BME280;66966;-34.746;138.604;2023-05-10T06:53:58;102705.68;;;21.52;29.78
77778;BME280;66966;-34.746;138.604;2023-05-10T06:56:23;102704.24;;;21.76;30.07
77778;BME280;66966;-34.746;138.604;2023-05-10T06:58:48;102701.93;;;21.56;30.31
77778;BME280;66966;-34.746;138.604;2023-05-10T07:01:13;102699.37;;;21.36;30.37
77778;BME280;66966;-34.746;138.604;2023-05-10T07:03:39;102698.39;;;21.24;30.67
77778;BME280;66966;-34.746;138.604;2023-05-10T07:06:05;102701.76;;;21.13;30.65
77778;BME280;66966;-34.746;138.604;2023-05-10T07:08:30;102699.78;;;20.96;30.61
77778;BME280;66966;-34.746;138.604;2023-05-10T07:11:00;102700.97;;;20.67;30.78
77778;BME280;66966;-34.746;138.604;2023-05-10T07:13:20;102701.00;;;20.69;31.06
77778;BME280;66966;-34.746;138.604;2023-05-10T07:15:46;102701.06;;;20.32;31.40
77778;BME280;66966;-34.746;138.604;2023-05-10T07:18:11;102701.50;;;20.45;31.80
77778;BME280;66966;-34.746;138.604;2023-05-10T07:20:37;102701.80;;;20.41;31.91
77778;BME280;66966;-34.746;138.604;2023-05-10T07:23:02;102707.10;;;20.38;31.87
77778;BME280;66966;-34.746;138.604;2023-05-10T07:25:27;102710.65;;;20.16;32.17
77778;BME280;66966;-34.746;138.604;2023-05-10T07:27:53;102713.54;;;19.96;32.43
77778;BME280;66966;-34.746;138.604;2023-05-10T07:30:19;102717.92;;;19.95;32.62
77778;BME280;66966;-34.746;138.604;2023-05-10T07:32:44;102718.02;;;19.80;32.77
77778;BME280;66966;-34.746;138.604;2023-05-10T07:35:09;102719.86;;;19.73;32.88
77778;BME280;66966;-34.746;138.604;2023-05-10T07:37:34;102718.98;;;19.92;33.00
77778;BME280;66966;-34.746;138.604;2023-05-10T07:40:00;102719.03;;;19.68;33.09
77778;BME280;66966;-34.746;138.604;2023-05-10T07:42:25;102718.66;;;19.66;33.06
77778;BME280;66966;-34.746;138.604;2023-05-10T07:44:51;102718.27;;;19.76;33.22
77778;BME280;66966;-34.746;138.604;2023-05-10T07:47:16;102716.02;;;19.71;33.27
77778;BME280;66966;-34.746;138.604;2023-05-10T07:49:42;102713.08;;;19.90;33.34
77778;BME280;66966;-34.746;138.604;2023-05-10T07:52:07;102711.01;;;19.61;33.50
77778;BME280;66966;-34.746;138.604;2023-05-10T07:54:32;102712.10;;;19.28;33.56
77778;BME280;66966;-34.746;138.604;2023-05-10T07:56:59;102713.22;;;19.42;33.74
77778;BME280;66966;-34.746;138.604;2023-05-10T07:59:24;102715.30;;;19.10;33.76
77778;BME280;66966;-34.746;138.604;2023-05-10T08:01:49;102716.51;;;19.45;33.90
77778;BME280;66966;-34.746;138.604;2023-05-10T08:04:14;102711.05;;;19.32;34.07
77778;BME280;66966;-34.746;138.604;2023-05-10T08:06:40;102708.60;;;19.17;34.22
77778;BME280;66966;-34.746;138.604;2023-05-10T08:09:06;102703.24;;;18.72;34.35
77778;BME280;66966;-34.746;138.604;2023-05-10T08:11:31;102704.17;;;18.88;34.54
77778;BME280;66966;-34.746;138.604;2023-05-10T08:13:56;102704.12;;;18.77;34.59
77778;BME280;66966;-34.746;138.604;2023-05-10T08:16:22;102704.54;;;18.69;34.71
77778;BME280;66966;-34.746;138.604;2023-05-10T08:18:48;102702.11;;;18.57;34.83
77778;BME280;66966;-34.746;138.604;2023-05-10T08:21:13;102706.18;;;18.49;34.83
77778;BME280;66966;-34.746;138.604;2023-05-10T08:23:38;102708.13;;;18.37;34.95
77778;BME280;66966;-34.746;138.604;2023-05-10T08:26:04;102711.23;;;18.29;35.03
77778;BME280;66966;-34.746;138.604;2023-05-10T08:28:29;102709.64;;;18.16;35.20
77778;BME280;66966;-34.746;138.604;2023-05-10T08:30:55;102714.77;;;18.31;35.23
77778;BME280;66966;-34.746;138.604;2023-05-10T08:33:21;102716.62;;;18.21;35.35
77778;BME280;66966;-34.746;138.604;2023-05-10T08:35:46;102718.02;;;18.32;35.61
77778;BME280;66966;-34.746;138.604;2023-05-10T08:38:11;102717.38;;;17.72;35.73
77778;BME280;66966;-34.746;138.604;2023-05-10T08:40:38;102714.79;;;18.09;35.84
77778;BME280;66966;-34.746;138.604;2023-05-10T08:43:06;102715.90;;;18.01;35.96
77778;BME280;66966;-34.746;138.604;2023-05-10T08:45:33;102713.89;;;17.92;36.11
77778;BME280;66966;-34.746;138.604;2023-05-10T08:47:53;102714.76;;;17.58;36.17
77778;BME280;66966;-34.746;138.604;2023-05-10T08:50:21;102714.08;;;17.68;36.34
77778;BME280;66966;-34.746;138.604;2023-05-10T08:52:46;102713.13;;;17.62;36.47
77778;BME280;66966;-34.746;138.604;2023-05-10T08:55:10;102715.52;;;17.60;36.59
77778;BME280;66966;-34.746;138.604;2023-05-10T08:57:36;102714.45;;;17.55;36.68
77778;BME280;66966;-34.746;138.604;2023-05-10T09:00:02;102717.07;;;17.71;36.78
77778;BME280;66966;-34.746;138.604;2023-05-10T09:02:26;102718.14;;;17.37;36.86
77778;BME280;66966;-34.746;138.604;2023-05-10T09:04:52;102717.34;;;17.28;36.96
77778;BME280;66966;-34.746;138.604;2023-05-10T09:07:18;102716.36;;;17.64;37.06
77778;BME280;66966;-34.746;138.604;2023-05-10T09:09:43;102719.12;;;17.29;37.13
77778;BME280;66966;-34.746;138.604;2023-05-10T09:12:09;102718.26;;;17.19;37.21
77778;BME280;66966;-34.746;138.604;2023-05-10T09:14:35;102722.91;;;17.35;37.31
77778;BME280;66966;-34.746;138.604;2023-05-10T09:17:00;102722.89;;;17.05;37.40
77778;BME280;66966;-34.746;138.604;2023-05-10T09:19:25;102724.53;;;16.72;37.46
77778;BME280;66966;-34.746;138.604;2023-05-10T09:21:51;102721.86;;;16.88;37.53
77778;BME280;66966;-34.746;138.604;2023-05-10T09:24:16;102723.88;;;16.53;37.69
77778;BME280;66966;-34.746;138.604;2023-05-10T09:26:46;102724.42;;;16.94;37.80
77778;BME280;66966;-34.746;138.604;2023-05-10T09:29:07;102726.12;;;16.65;37.81
77778;BME280;66966;-34.746;138.604;2023-05-10T09:31:46;102728.98;;;16.81;37.90
77778;BME280;66966;-34.746;138.604;2023-05-10T09:33:59;102725.92;;;16.25;37.94
77778;BME280;66966;-34.746;138.604;2023-05-10T09:36:24;102726.20;;;16.61;38.13
77778;BME280;66966;-34.746;138.604;2023-05-10T09:38:51;102725.06;;;16.55;38.16
77778;BME280;66966;-34.746;138.604;2023-05-10T09:41:20;102724.44;;;16.52;38.25
77778;BME280;66966;-34.746;138.604;2023-05-10T09:43:41;102723.70;;;16.77;38.28
77778;BME280;66966;-34.746;138.604;2023-05-10T09:46:11;102723.93;;;16.47;38.61
77778;BME280;66966;-34.746;138.604;2023-05-10T09:48:31;102725.04;;;16.48;38.64
77778;BME280;66966;-34.746;138.604;2023-05-10T09:50:58;102725.55;;;16.69;38.43
77778;BME280;66966;-34.746;138.604;2023-05-10T09:53:23;102725.65;;;16.66;38.60
77778;BME280;66966;-34.746;138.604;2023-05-10T09:55:48;102728.37;;;16.37;38.58
77778;BME280;66966;-34.746;138.604;2023-05-10T09:58:15;102728.93;;;16.32;38.60
77778;BME280;66966;-34.746;138.604;2023-05-10T10:00:41;102727.91;;;16.56;38.43
77778;BME280;66966;-34.746;138.604;2023-05-10T10:03:05;102727.13;;;16.24;38.45
77778;BME280;66966;-34.746;138.604;2023-05-10T10:05:31;102726.36;;;16.40;38.49
77778;BME280;66966;-34.746;138.604;2023-05-10T10:07:57;102728.22;;;16.14;38.46
77778;BME280;66966;-34.746;138.604;2023-05-10T10:10:22;102731.50;;;16.53;38.54
77778;BME280;66966;-34.746;138.604;2023-05-10T10:12:46;102730.47;;;16.00;38.55
77778;BME280;66966;-34.746;138.604;2023-05-10T10:15:12;102728.80;;;16.18;38.63
77778;BME280;66966;-34.746;138.604;2023-05-10T10:17:38;102727.77;;;15.48;38.60
77778;BME280;66966;-34.746;138.604;2023-05-10T10:20:04;102727.65;;;16.65;38.19
77778;BME280;66966;-34.746;138.604;2023-05-10T10:22:29;102731.62;;;16.01;38.36
77778;BME280;66966;-34.746;138.604;2023-05-10T10:24:55;102737.57;;;16.13;38.46
77778;BME280;66966;-34.746;138.604;2023-05-10T10:27:26;102737.61;;;16.25;38.50
77778;BME280;66966;-34.746;138.604;2023-05-10T10:29:57;102735.93;;;16.16;38.55
77778;BME280;66966;-34.746;138.604;2023-05-10T10:32:19;102733.04;;;15.84;38.56
77778;BME280;66966;-34.746;138.604;2023-05-10T10:34:38;102729.43;;;15.99;38.59
77778;BME280;66966;-34.746;138.604;2023-05-10T10:37:06;102723.15;;;15.92;38.52
77778;BME280;66966;-34.746;138.604;2023-05-10T10:39:28;102714.43;;;15.60;38.54
77778;BME280;66966;-34.746;138.604;2023-05-10T10:41:53;102713.98;;;15.77;38.54
77778;BME280;66966;-34.746;138.604;2023-05-10T10:49:11;102707.84;;;15.82;38.07
77778;BME280;66966;-34.746;138.604;2023-05-10T10:51:38;102711.64;;;15.63;37.97
77778;BME280;66966;-34.746;138.604;2023-05-10T10:54:09;102714.86;;;15.86;37.81
77778;BME280;66966;-34.746;138.604;2023-05-10T10:56:25;102712.88;;;15.63;37.70
77778;BME280;66966;-34.746;138.604;2023-05-10T10:58:51;102711.31;;;15.64;37.56
77778;BME280;66966;-34.746;138.604;2023-05-10T11:01:17;102709.53;;;15.88;37.52
77778;BME280;66966;-34.746;138.604;2023-05-10T11:06:07;102709.54;;;15.92;37.24
77778;BME280;66966;-34.746;138.604;2023-05-10T11:08:34;102709.06;;;15.58;37.20
77778;BME280;66966;-34.746;138.604;2023-05-10T11:11:05;102713.48;;;15.47;37.17
77778;BME280;66966;-34.746;138.604;2023-05-10T11:13:29;102713.63;;;15.63;37.13
77778;BME280;66966;-34.746;138.604;2023-05-10T11:15:50;102717.22;;;15.54;37.16
77778;BME280;66966;-34.746;138.604;2023-05-10T11:18:20;102719.56;;;15.50;37.23
77778;BME280;66966;-34.746;138.604;2023-05-10T11:20:41;102721.66;;;15.42;37.35
77778;BME280;66966;-34.746;138.604;2023-05-10T11:23:12;102717.45;;;15.08;37.45
77778;BME280;66966;-34.746;138.604;2023-05-10T11:25:32;102716.48;;;15.27;37.54
77778;BME280;66966;-34.746;138.604;2023-05-10T11:27:59;102716.92;;;15.24;37.62
77778;BME280;66966;-34.746;138.604;2023-05-10T11:30:24;102721.34;;;15.21;37.65
77778;BME280;66966;-34.746;138.604;2023-05-10T11:32:49;102720.37;;;15.15;37.69
77778;BME280;66966;-34.746;138.604;2023-05-10T11:35:15;102722.76;;;15.14;37.71
77778;BME280;66966;-34.746;138.604;2023-05-10T11:37:43;102724.11;;;15.13;37.75
77778;BME280;66966;-34.746;138.604;2023-05-10T11:40:07;102723.93;;;15.05;37.86
77778;BME280;66966;-34.746;138.604;2023-05-10T11:42:31;102724.92;;;15.03;37.95
77778;BME280;66966;-34.746;138.604;2023-05-10T11:44:57;102726.89;;;15.00;38.09
77778;BME280;66966;-34.746;138.604;2023-05-10T11:47:23;102727.02;;;14.99;38.11
77778;BME280;66966;-34.746;138.604;2023-05-10T11:49:49;102729.39;;;15.25;38.18
77778;BME280;66966;-34.746;138.604;2023-05-10T11:52:14;102728.95;;;14.93;38.15
77778;BME280;66966;-34.746;138.604;2023-05-10T11:54:46;102729.83;;;14.91;38.21
77778;BME280;66966;-34.746;138.604;2023-05-10T11:57:05;102725.47;;;14.94;38.22
77778;BME280;66966;-34.746;138.604;2023-05-10T11:59:31;102728.24;;;15.17;38.29
77778;BME280;66966;-34.746;138.604;2023-05-10T12:01:57;102730.07;;;14.95;38.40
77778;BME280;66966;-34.746;138.604;2023-05-10T12:06:48;102727.89;;;15.00;38.29
77778;BME280;66966;-34.746;138.604;2023-05-10T12:09:13;102728.41;;;15.01;38.32
77778;BME280;66966;-34.746;138.604;2023-05-10T12:11:41;102731.40;;;15.23;38.36
77778;BME280;66966;-34.746;138.604;2023-05-10T12:14:06;102732.56;;;14.97;38.44
77778;BME280;66966;-34.746;138.604;2023-05-10T12:16:30;102728.18;;;14.93;38.44
77778;BME280;66966;-34.746;138.604;2023-05-10T12:18:58;102724.50;;;14.87;38.58
77778;BME280;66966;-34.746;138.604;2023-05-10T12:21:22;102722.76;;;14.86;38.66
77778;BME280;66966;-34.746;138.604;2023-05-10T12:23:49;102720.64;;;15.04;38.86
77778;BME280;66966;-34.746;138.604;2023-05-10T12:26:13;102720.11;;;14.78;38.81
77778;BME280;66966;-34.746;138.604;2023-05-10T12:28:39;102721.33;;;14.74;38.80